Lobo

Go HERE for most recent data if this page is not up to date.

Jump to table bottom
Date/Time Temp deg F RH % 24 Hr Snow (in) Snow Depth (in) H2O (in)
12/18 15:00 26.1 70 -0.3 31.7 0.00
12/18 14:00 26.6 67 -0.2 31.7 0.00
12/18 13:00 27.1 63 -0.2 31.8 0.00
12/18 12:00 27.2 66 -0.3 31.8 0.00
12/18 11:00 26.5 67 -0.2 31.8 0.00
12/18 10:00 25.4 76 -0.2 32.0 0.00
12/18 09:00 25.0 77 -0.2 32.0 0.00
12/18 08:00 24.9 80 -0.2 32.1 0.00
12/18 07:00 25.1 79 -0.2 32.2 0.00
12/18 06:00 24.9 83 -0.2 32.2 0.00
12/18 05:00 25.2 85 -0.2 32.3 0.00
12/18 04:00 24.6 87 -0.2 32.3 0.00
12/18 03:00 23.4 95 -0.2 32.2 0.00
12/18 02:00 24.2 95 -0.2 32.4 0.00
12/18 01:00 25.0 86 -0.3 32.3 0.00
12/18 00:00 23.7 86 -0.3 32.4 0.00
12/17 23:00 23.2 88 -0.2 32.5 0.00
12/17 22:00 21.6 89 -0.2 32.6 0.00
12/17 21:00 19.4 89 -0.1 32.7 0.00
12/17 20:00 22.1 86 -0.2 32.6 0.00
12/17 19:00 22.0 90 -0.1 32.8 0.00
12/17 18:00 16.9 93 -0.0 33.1 0.00
12/17 17:00 15.0 87 0.0 33.3 0.00
12/17 16:00 15.8 87 0.0 33.4 0.00
12/17 15:00 16.2 79 -0.0 33.3 0.00
12/17 14:00 17.3 71 -0.2 33.1 0.00
12/17 13:00 16.5 69 -0.2 33.0 0.00
12/17 12:00 13.8 64 0.5 33.4 0.00
12/17 11:00 12.2 70 0.7 33.9 0.00
12/17 10:00 9.7 60 0.7 34.0 0.00
12/17 09:00 7.8 57 0.8 34.2 0.00
12/17 08:00 5.7 67 0.9 34.5 0.00
12/17 07:00 4.8 64 1.0 34.5 0.00
12/17 06:00 4.8 64 0.8 34.6 0.00
12/17 05:00 7.4 70 1.0 34.9 0.00
12/17 04:00 7.8 39 0.7 34.7 0.00
12/17 03:00 7.1 68 0.2 34.3 0.00
12/17 02:00 7.5 77 0.2 33.3 0.00
12/17 01:00 7.6 86 0.4 34.6 0.00
12/17 00:00 9.1 80 0.1 34.0 0.00
.